Bend, Oregon
Current Conditions -  °F | °C
As of 11:15 AM on Tuesday 21 Oct 2014 (Local Time) from KBDN Reporting Station
Few Clouds Few Clouds  
Wind Chill: 50°   Ceiling: Unl
Heat Index: 50°   Visibility: 10mi
Dew Point: 37°   Wind: 13mph
Humidity: 62%   Direction: 220°SW
Pressure: 30.06"   Gusts: NA
Location:  44.06°N, 121.31°W
Report Text: KBDN 211815Z AUTO 22011KT 10SM FEW100 10/03 A3006 RMK AO2
Loading
Personal Weather Stations






























Interactive Weather Map
Tropical Storm Tracking
New forecast layout! Learn more

10-Day Weather Forecast

Advertisements
Track Severe Weather on mobile